sensor_id;sensor_type;location;lat;lon;timestamp;temperature;humidity
34522;DHT22;25561;48.888;8.736;2023-05-18T05:31:33;12.90;99.90
34522;DHT22;25561;48.888;8.736;2023-05-18T05:34:35;13.70;99.90
34522;DHT22;25561;48.888;8.736;2023-05-18T05:37:38;14.30;99.90
34522;DHT22;25561;48.888;8.736;2023-05-18T05:40:40;14.20;99.90
34522;DHT22;25561;48.888;8.736;2023-05-18T05:43:41;14.30;99.90
34522;DHT22;25561;48.888;8.736;2023-05-18T05:46:43;14.70;99.90
34522;DHT22;25561;48.888;8.736;2023-05-18T05:49:45;15.10;99.90
34522;DHT22;25561;48.888;8.736;2023-05-18T05:52:47;15.20;99.90
34522;DHT22;25561;48.888;8.736;2023-05-18T05:55:49;15.50;99.90
34522;DHT22;25561;48.888;8.736;2023-05-18T05:58:50;15.60;99.90
34522;DHT22;25561;48.888;8.736;2023-05-18T06:01:52;15.30;99.90
34522;DHT22;25561;48.888;8.736;2023-05-18T06:04:54;15.80;99.90
34522;DHT22;25561;48.888;8.736;2023-05-18T06:07:56;16.60;99.90
34522;DHT22;25561;48.888;8.736;2023-05-18T06:10:58;16.40;99.90
34522;DHT22;25561;48.888;8.736;2023-05-18T06:49:52;15.40;99.90
34522;DHT22;25561;48.888;8.736;2023-05-18T06:52:54;16.10;99.90
34522;DHT22;25561;48.888;8.736;2023-05-18T06:55:55;16.70;99.90
34522;DHT22;25561;48.888;8.736;2023-05-18T06:58:57;17.60;99.90
34522;DHT22;25561;48.888;8.736;2023-05-18T07:02:01;17.20;99.90
34522;DHT22;25561;48.888;8.736;2023-05-18T07:05:03;18.20;99.90
34522;DHT22;25561;48.888;8.736;2023-05-18T07:08:07;18.90;99.90
34522;DHT22;25561;48.888;8.736;2023-05-18T07:11:10;18.20;99.90
34522;DHT22;25561;48.888;8.736;2023-05-18T07:14:11;18.90;99.90
34522;DHT22;25561;48.888;8.736;2023-05-18T07:17:13;18.90;99.90
34522;DHT22;25561;48.888;8.736;2023-05-18T07:20:15;17.80;99.90
34522;DHT22;25561;48.888;8.736;2023-05-18T07:23:17;17.60;99.90
34522;DHT22;25561;48.888;8.736;2023-05-18T07:26:19;17.90;99.90
34522;DHT22;25561;48.888;8.736;2023-05-18T07:29:22;18.10;99.90
34522;DHT22;25561;48.888;8.736;2023-05-18T07:32:24;17.90;99.90
34522;DHT22;25561;48.888;8.736;2023-05-18T07:35:26;18.70;99.90
34522;DHT22;25561;48.888;8.736;2023-05-18T07:38:28;18.90;99.90
34522;DHT22;25561;48.888;8.736;2023-05-18T07:41:30;19.50;99.90
34522;DHT22;25561;48.888;8.736;2023-05-18T07:44:32;19.40;99.90
34522;DHT22;25561;48.888;8.736;2023-05-18T07:47:34;19.20;99.90
34522;DHT22;25561;48.888;8.736;2023-05-18T07:50:36;18.50;99.90
34522;DHT22;25561;48.888;8.736;2023-05-18T07:53:38;19.00;99.90
34522;DHT22;25561;48.888;8.736;2023-05-18T07:56:41;19.60;99.90
34522;DHT22;25561;48.888;8.736;2023-05-18T07:59:44;20.10;99.90
34522;DHT22;25561;48.888;8.736;2023-05-18T08:02:46;20.30;99.90
34522;DHT22;25561;48.888;8.736;2023-05-18T08:05:48;20.70;99.90
34522;DHT22;25561;48.888;8.736;2023-05-18T08:08:50;20.70;99.90
34522;DHT22;25561;48.888;8.736;2023-05-18T08:11:52;21.70;99.20
34522;DHT22;25561;48.888;8.736;2023-05-18T08:14:54;22.00;99.30
34522;DHT22;25561;48.888;8.736;2023-05-18T08:17:56;21.60;98.50
34522;DHT22;25561;48.888;8.736;2023-05-18T08:20:58;22.40;97.70
34522;DHT22;25561;48.888;8.736;2023-05-18T08:24:02;21.70;96.50
34522;DHT22;25561;48.888;8.736;2023-05-18T08:27:04;21.80;98.20
34522;DHT22;25561;48.888;8.736;2023-05-18T08:30:09;22.90;96.20
34522;DHT22;25561;48.888;8.736;2023-05-18T08:33:11;22.40;95.60
34522;DHT22;25561;48.888;8.736;2023-05-18T08:36:13;22.00;95.50
34522;DHT22;25561;48.888;8.736;2023-05-18T08:39:14;21.20;96.70
34522;DHT22;25561;48.888;8.736;2023-05-18T08:42:28;21.10;98.30
34522;DHT22;25561;48.888;8.736;2023-05-18T08:45:57;21.00;97.20
34522;DHT22;25561;48.888;8.736;2023-05-18T08:49:00;20.60;96.70
34522;DHT22;25561;48.888;8.736;2023-05-18T08:52:03;21.40;96.40
34522;DHT22;25561;48.888;8.736;2023-05-18T08:55:06;22.30;94.40
34522;DHT22;25561;48.888;8.736;2023-05-18T08:58:16;21.30;94.90
34522;DHT22;25561;48.888;8.736;2023-05-18T09:01:20;21.30;96.40
34522;DHT22;25561;48.888;8.736;2023-05-18T09:04:25;22.70;96.40
34522;DHT22;25561;48.888;8.736;2023-05-18T09:07:28;23.30;91.70
34522;DHT22;25561;48.888;8.736;2023-05-18T09:10:31;22.20;92.90
34522;DHT22;25561;48.888;8.736;2023-05-18T09:13:34;22.50;93.20
34522;DHT22;25561;48.888;8.736;2023-05-18T09:16:36;22.30;93.70
34522;DHT22;25561;48.888;8.736;2023-05-18T09:19:38;21.90;93.50
34522;DHT22;25561;48.888;8.736;2023-05-18T09:22:39;21.30;93.10
34522;DHT22;25561;48.888;8.736;2023-05-18T09:25:43;21.70;92.80
34522;DHT22;25561;48.888;8.736;2023-05-18T09:28:54;22.20;92.50
34522;DHT22;25561;48.888;8.736;2023-05-18T09:31:56;22.90;92.30
34522;DHT22;25561;48.888;8.736;2023-05-18T09:35:03;21.40;92.00
34522;DHT22;25561;48.888;8.736;2023-05-18T09:38:05;20.50;95.50
34522;DHT22;25561;48.888;8.736;2023-05-18T09:41:09;21.50;92.90
34522;DHT22;25561;48.888;8.736;2023-05-18T09:44:13;21.30;92.70
34522;DHT22;25561;48.888;8.736;2023-05-18T09:47:16;22.00;93.00
34522;DHT22;25561;48.888;8.736;2023-05-18T09:50:22;22.70;92.30
34522;DHT22;25561;48.888;8.736;2023-05-18T09:53:24;22.20;92.40
34522;DHT22;25561;48.888;8.736;2023-05-18T09:56:26;21.10;92.70
34522;DHT22;25561;48.888;8.736;2023-05-18T09:59:28;20.10;95.70
34522;DHT22;25561;48.888;8.736;2023-05-18T10:02:30;20.00;94.70
34522;DHT22;25561;48.888;8.736;2023-05-18T10:05:32;20.30;95.30
34522;DHT22;25561;48.888;8.736;2023-05-18T10:08:37;21.30;93.30
34522;DHT22;25561;48.888;8.736;2023-05-18T10:11:39;20.30;95.40
34522;DHT22;25561;48.888;8.736;2023-05-18T10:14:43;21.10;94.80
34522;DHT22;25561;48.888;8.736;2023-05-18T10:17:46;20.20;94.50
34522;DHT22;25561;48.888;8.736;2023-05-18T10:20:49;19.30;95.50
34522;DHT22;25561;48.888;8.736;2023-05-18T10:23:52;18.60;95.50
34522;DHT22;25561;48.888;8.736;2023-05-18T10:26:55;18.40;95.70
34522;DHT22;25561;48.888;8.736;2023-05-18T10:29:59;20.10;95.90
34522;DHT22;25561;48.888;8.736;2023-05-18T10:33:04;22.20;93.50
34522;DHT22;25561;48.888;8.736;2023-05-18T10:36:17;22.40;90.70
34522;DHT22;25561;48.888;8.736;2023-05-18T10:39:20;21.60;91.40
34522;DHT22;25561;48.888;8.736;2023-05-18T10:42:22;22.00;92.80
34522;DHT22;25561;48.888;8.736;2023-05-18T10:45:25;21.00;92.90
34522;DHT22;25561;48.888;8.736;2023-05-18T10:48:28;19.60;94.00
34522;DHT22;25561;48.888;8.736;2023-05-18T10:51:31;18.60;95.70
34522;DHT22;25561;48.888;8.736;2023-05-18T10:54:33;18.20;96.90
34522;DHT22;25561;48.888;8.736;2023-05-18T10:57:50;19.80;98.20
34522;DHT22;25561;48.888;8.736;2023-05-18T11:00:54;19.80;95.50
34522;DHT22;25561;48.888;8.736;2023-05-18T11:04:01;19.50;94.40
34522;DHT22;25561;48.888;8.736;2023-05-18T11:07:04;20.10;94.10
34522;DHT22;25561;48.888;8.736;2023-05-18T11:10:11;20.60;94.40
34522;DHT22;25561;48.888;8.736;2023-05-18T11:13:14;22.10;90.70
34522;DHT22;25561;48.888;8.736;2023-05-18T11:16:17;23.30;91.30
34522;DHT22;25561;48.888;8.736;2023-05-18T11:19:24;23.30;86.30
34522;DHT22;25561;48.888;8.736;2023-05-18T11:22:47;21.70;90.20
34522;DHT22;25561;48.888;8.736;2023-05-18T11:25:50;19.90;91.90
34522;DHT22;25561;48.888;8.736;2023-05-18T11:28:52;20.30;91.40
34522;DHT22;25561;48.888;8.736;2023-05-18T11:31:54;20.70;90.60
34522;DHT22;25561;48.888;8.736;2023-05-18T11:34:57;19.80;90.40
34522;DHT22;25561;48.888;8.736;2023-05-18T11:38:08;19.20;92.20
34522;DHT22;25561;48.888;8.736;2023-05-18T11:44:31;19.20;91.80
34522;DHT22;25561;48.888;8.736;2023-05-18T11:47:34;18.70;93.80
34522;DHT22;25561;48.888;8.736;2023-05-18T11:50:45;18.00;94.60
34522;DHT22;25561;48.888;8.736;2023-05-18T11:53:47;18.00;96.10
34522;DHT22;25561;48.888;8.736;2023-05-18T11:56:51;17.70;95.90
34522;DHT22;25561;48.888;8.736;2023-05-18T11:59:54;17.40;95.50
34522;DHT22;25561;48.888;8.736;2023-05-18T12:03:00;17.60;96.20
34522;DHT22;25561;48.888;8.736;2023-05-18T12:06:02;17.10;95.00
34522;DHT22;25561;48.888;8.736;2023-05-18T12:09:06;17.30;96.20
34522;DHT22;25561;48.888;8.736;2023-05-18T12:12:09;18.10;96.00
34522;DHT22;25561;48.888;8.736;2023-05-18T12:15:11;18.00;95.30
34522;DHT22;25561;48.888;8.736;2023-05-18T12:18:17;18.10;95.90
34522;DHT22;25561;48.888;8.736;2023-05-18T12:21:20;18.10;96.30
34522;DHT22;25561;48.888;8.736;2023-05-18T12:24:22;17.70;95.20
34522;DHT22;25561;48.888;8.736;2023-05-18T12:27:24;17.60;96.10
34522;DHT22;25561;48.888;8.736;2023-05-18T12:30:27;17.50;96.60
34522;DHT22;25561;48.888;8.736;2023-05-18T12:33:36;17.80;95.40
34522;DHT22;25561;48.888;8.736;2023-05-18T12:36:53;17.90;95.80
34522;DHT22;25561;48.888;8.736;2023-05-18T12:39:56;18.10;96.40
34522;DHT22;25561;48.888;8.736;2023-05-18T12:42:59;18.30;95.70
34522;DHT22;25561;48.888;8.736;2023-05-18T12:46:02;18.30;96.10
34522;DHT22;25561;48.888;8.736;2023-05-18T12:49:04;17.90;96.10
34522;DHT22;25561;48.888;8.736;2023-05-18T12:52:11;18.00;96.70
34522;DHT22;25561;48.888;8.736;2023-05-18T12:55:18;18.30;96.70
34522;DHT22;25561;48.888;8.736;2023-05-18T12:58:22;18.70;96.20
34522;DHT22;25561;48.888;8.736;2023-05-18T13:01:25;18.40;94.90
34522;DHT22;25561;48.888;8.736;2023-05-18T13:04:33;18.40;94.90
34522;DHT22;25561;48.888;8.736;2023-05-18T13:07:40;18.60;95.20
34522;DHT22;25561;48.888;8.736;2023-05-18T13:10:43;18.80;95.70
34522;DHT22;25561;48.888;8.736;2023-05-18T13:14:06;18.90;96.30
34522;DHT22;25561;48.888;8.736;2023-05-18T13:17:07;18.40;94.60
34522;DHT22;25561;48.888;8.736;2023-05-18T13:20:13;18.10;95.20
34522;DHT22;25561;48.888;8.736;2023-05-18T13:23:23;18.20;93.80
34522;DHT22;25561;48.888;8.736;2023-05-18T13:26:26;18.20;94.50
34522;DHT22;25561;48.888;8.736;2023-05-18T13:29:28;18.20;95.10
34522;DHT22;25561;48.888;8.736;2023-05-18T13:32:30;18.70;95.30
34522;DHT22;25561;48.888;8.736;2023-05-18T13:35:32;18.30;94.80
34522;DHT22;25561;48.888;8.736;2023-05-18T13:38:34;18.00;95.80
34522;DHT22;25561;48.888;8.736;2023-05-18T13:41:37;17.90;95.80
34522;DHT22;25561;48.888;8.736;2023-05-18T13:44:39;18.10;95.50
34522;DHT22;25561;48.888;8.736;2023-05-18T13:47:41;18.10;96.20
34522;DHT22;25561;48.888;8.736;2023-05-18T13:50:43;18.60;95.30
34522;DHT22;25561;48.888;8.736;2023-05-18T13:53:45;18.40;94.40
34522;DHT22;25561;48.888;8.736;2023-05-18T13:56:47;18.10;95.30
34522;DHT22;25561;48.888;8.736;2023-05-18T13:59:49;18.20;95.00
34522;DHT22;25561;48.888;8.736;2023-05-18T14:02:50;18.00;94.40
34522;DHT22;25561;48.888;8.736;2023-05-18T14:05:53;18.10;95.00
34522;DHT22;25561;48.888;8.736;2023-05-18T14:08:55;18.60;95.80
34522;DHT22;25561;48.888;8.736;2023-05-18T14:11:57;18.50;96.00
34522;DHT22;25561;48.888;8.736;2023-05-18T14:15:00;18.20;96.20
34522;DHT22;25561;48.888;8.736;2023-05-18T14:18:02;17.90;96.50
34522;DHT22;25561;48.888;8.736;2023-05-18T14:21:04;17.90;96.10
34522;DHT22;25561;48.888;8.736;2023-05-18T14:24:06;18.40;95.90
34522;DHT22;25561;48.888;8.736;2023-05-18T14:27:10;18.80;94.20
34522;DHT22;25561;48.888;8.736;2023-05-18T14:30:12;18.70;94.80
34522;DHT22;25561;48.888;8.736;2023-05-18T14:33:14;18.80;95.40
34522;DHT22;25561;48.888;8.736;2023-05-18T14:36:16;18.70;95.40
34522;DHT22;25561;48.888;8.736;2023-05-18T14:39:20;18.50;95.10
34522;DHT22;25561;48.888;8.736;2023-05-18T14:42:22;18.60;96.00
34522;DHT22;25561;48.888;8.736;2023-05-18T14:45:23;18.60;96.40
34522;DHT22;25561;48.888;8.736;2023-05-18T14:48:25;18.60;97.10
34522;DHT22;25561;48.888;8.736;2023-05-18T14:51:27;18.80;94.60
34522;DHT22;25561;48.888;8.736;2023-05-18T14:54:29;19.10;94.30
34522;DHT22;25561;48.888;8.736;2023-05-18T14:57:30;19.30;94.80
34522;DHT22;25561;48.888;8.736;2023-05-18T15:00:32;18.80;94.60
34522;DHT22;25561;48.888;8.736;2023-05-18T15:03:34;18.10;94.70
34522;DHT22;25561;48.888;8.736;2023-05-18T15:06:36;17.70;95.50
34522;DHT22;25561;48.888;8.736;2023-05-18T15:09:38;17.80;95.80
34522;DHT22;25561;48.888;8.736;2023-05-18T15:12:40;18.10;95.30
34522;DHT22;25561;48.888;8.736;2023-05-18T15:15:42;18.20;95.10
34522;DHT22;25561;48.888;8.736;2023-05-18T15:18:46;18.00;94.90
34522;DHT22;25561;48.888;8.736;2023-05-18T15:21:48;17.50;95.50
34522;DHT22;25561;48.888;8.736;2023-05-18T15:24:50;17.50;96.70
34522;DHT22;25561;48.888;8.736;2023-05-18T15:27:51;17.50;96.40
34522;DHT22;25561;48.888;8.736;2023-05-18T15:30:54;17.80;95.80
34522;DHT22;25561;48.888;8.736;2023-05-18T15:33:57;18.10;96.20
34522;DHT22;25561;48.888;8.736;2023-05-18T15:36:59;18.40;95.50
34522;DHT22;25561;48.888;8.736;2023-05-18T15:40:02;18.50;94.50
34522;DHT22;25561;48.888;8.736;2023-05-18T15:43:04;18.50;94.80
34522;DHT22;25561;48.888;8.736;2023-05-18T15:46:06;18.70;95.10
34522;DHT22;25561;48.888;8.736;2023-05-18T15:49:08;18.40;94.60
34522;DHT22;25561;48.888;8.736;2023-05-18T15:52:09;18.20;94.80
34522;DHT22;25561;48.888;8.736;2023-05-18T15:55:11;18.40;95.60
34522;DHT22;25561;48.888;8.736;2023-05-18T15:58:14;18.50;95.30
